createdAt,value
2022-09-28T00:01:17.844Z,3.15
2022-09-28T00:03:46.882Z,3.08
2022-09-28T00:06:17.012Z,3.00
2022-09-28T00:08:44.588Z,3.30
2022-09-28T00:11:15.649Z,2.88
2022-09-28T00:13:44.241Z,2.45
2022-09-28T00:16:18.469Z,2.70
2022-09-28T00:18:48.316Z,2.75
2022-09-28T00:21:24.428Z,2.78
2022-09-28T00:24:12.836Z,3.10
2022-09-28T00:26:46.371Z,2.03
2022-09-28T00:29:35.461Z,2.38
2022-09-28T00:32:06.468Z,2.80
2022-09-28T00:34:36.627Z,2.53
2022-09-28T00:37:06.068Z,2.78
2022-09-28T00:39:34.577Z,2.47
2022-09-28T00:42:03.819Z,2.92
2022-09-28T00:44:40.050Z,2.67
2022-09-28T00:47:27.689Z,2.53
2022-09-28T00:49:54.863Z,2.40
2022-09-28T00:52:32.751Z,2.33
2022-09-28T00:55:02.347Z,2.50
2022-09-28T00:57:31.229Z,2.65
2022-09-28T01:00:00.707Z,2.30
2022-09-28T01:02:28.355Z,2.65
2022-09-28T01:04:59.282Z,2.90
2022-09-28T01:07:26.885Z,2.40
2022-09-28T01:09:55.149Z,2.70
2022-09-28T01:12:22.557Z,2.78
2022-09-28T01:14:51.164Z,2.75
2022-09-28T01:17:26.619Z,2.92
2022-09-28T01:20:00.265Z,2.60
2022-09-28T01:22:36.677Z,2.50
2022-09-28T01:25:57.996Z,2.38
2022-09-28T01:28:29.355Z,2.35
2022-09-28T01:31:17.827Z,2.67
2022-09-28T01:33:50.964Z,2.47
2022-09-28T01:36:31.576Z,2.45
2022-09-28T01:39:06.006Z,2.65
2022-09-28T01:41:40.663Z,3.00
2022-09-28T01:44:14.393Z,2.63
2022-09-28T01:46:45.776Z,3.30
2022-09-28T01:49:31.655Z,2.70
2022-09-28T01:52:14.886Z,2.72
2022-09-28T01:55:00.575Z,2.67
2022-09-28T01:57:33.738Z,2.90
2022-09-28T02:00:10.834Z,2.97
2022-09-28T02:02:57.523Z,2.83
2022-09-28T02:05:39.306Z,2.42
2022-09-28T02:08:14.153Z,3.03
2022-09-28T02:10:44.104Z,3.25
2022-09-28T02:13:20.767Z,2.88
2022-09-28T02:16:06.185Z,3.30
2022-09-28T02:18:34.266Z,3.00
2022-09-28T02:21:13.500Z,2.78
2022-09-28T02:23:51.816Z,2.70
2022-09-28T02:26:23.406Z,3.17
2022-09-28T02:28:50.936Z,2.75
2022-09-28T02:31:18.347Z,2.50
2022-09-28T02:33:47.911Z,2.95
2022-09-28T02:36:15.239Z,2.90
2022-09-28T02:38:43.124Z,3.17
2022-09-28T02:42:04.855Z,3.50
2022-09-28T02:44:47.045Z,2.80
2022-09-28T02:47:49.754Z,3.00
2022-09-28T02:50:59.835Z,3.30
2022-09-28T02:53:42.423Z,3.05
2022-09-28T02:56:47.364Z,2.92
2022-09-28T02:59:17.830Z,2.70
2022-09-28T03:02:14.386Z,2.88
2022-09-28T03:05:06.639Z,2.60
2022-09-28T03:08:02.587Z,3.17
2022-09-28T03:10:43.664Z,2.88
2022-09-28T03:13:14.018Z,3.53
2022-09-28T03:15:46.433Z,3.33
2022-09-28T03:18:16.590Z,3.05
2022-09-28T03:20:44.094Z,3.00
2022-09-28T03:23:26.911Z,3.15
2022-09-28T03:25:57.391Z,2.72
2022-09-28T03:28:24.807Z,3.40
2022-09-28T03:30:53.026Z,3.08
2022-09-28T03:33:21.274Z,3.28
2022-09-28T03:35:50.955Z,2.88
2022-09-28T03:38:19.544Z,2.83
2022-09-28T03:40:55.443Z,2.78
2022-09-28T03:43:24.455Z,2.40
2022-09-28T03:45:55.147Z,2.95
2022-09-28T03:48:31.381Z,3.03
2022-09-28T03:51:02.727Z,3.30
2022-09-28T03:53:30.961Z,3.30
2022-09-28T03:56:14.111Z,3.08
2022-09-28T03:58:42.710Z,2.45
2022-09-28T04:01:17.651Z,2.50
2022-09-28T04:03:47.458Z,2.95
2022-09-28T04:06:15.732Z,3.05
2022-09-28T04:08:43.693Z,2.70
2022-09-28T04:11:11.946Z,2.72
2022-09-28T04:13:39.746Z,2.45
2022-09-28T04:16:11.664Z,2.67
2022-09-28T04:18:40.306Z,2.40
2022-09-28T04:21:26.118Z,3.08
2022-09-28T04:24:03.178Z,2.63
2022-09-28T04:26:30.701Z,2.75
2022-09-28T04:29:19.531Z,2.33
2022-09-28T04:31:56.569Z,3.20
2022-09-28T04:34:36.491Z,2.95
2022-09-28T04:37:05.711Z,2.90
2022-09-28T04:39:33.009Z,2.67
2022-09-28T04:42:01.373Z,2.88
2022-09-28T04:44:29.198Z,2.83
2022-09-28T04:47:05.292Z,3.08
2022-09-28T04:49:35.618Z,2.75
2022-09-28T04:52:06.989Z,2.80
2022-09-28T04:54:35.528Z,3.13
2022-09-28T04:57:04.037Z,2.92
2022-09-28T04:59:31.301Z,3.25
2022-09-28T05:02:00.430Z,2.50
2022-09-28T05:04:55.518Z,3.40
2022-09-28T05:07:27.127Z,3.25
2022-09-28T05:09:56.208Z,2.88
2022-09-28T05:12:24.537Z,3.15
2022-09-28T05:14:51.895Z,2.78
2022-09-28T05:17:19.354Z,2.60
2022-09-28T05:20:00.948Z,3.60
2022-09-28T05:22:29.052Z,2.80
2022-09-28T05:24:59.334Z,2.67
2022-09-28T05:27:29.946Z,3.05
2022-09-28T05:30:07.485Z,3.33
2022-09-28T05:32:53.888Z,3.22
2022-09-28T05:35:32.571Z,3.50
2022-09-28T05:38:05.078Z,3.33
2022-09-28T05:40:33.649Z,2.95
2022-09-28T05:43:08.374Z,3.08
2022-09-28T05:45:35.838Z,2.72
2022-09-28T05:48:04.745Z,3.20
2022-09-28T05:50:32.369Z,3.35
2022-09-28T05:53:05.983Z,3.60
2022-09-28T05:55:33.753Z,3.13
2022-09-28T05:58:03.375Z,3.10
2022-09-28T06:00:32.325Z,3.70
2022-09-28T06:03:11.854Z,3.40
2022-09-28T06:05:40.233Z,3.50
2022-09-28T06:08:12.338Z,3.45
2022-09-28T06:10:44.264Z,3.17
2022-09-28T06:13:12.425Z,3.63
2022-09-28T06:15:42.859Z,3.53
2022-09-28T06:18:16.873Z,3.03
2022-09-28T06:21:03.071Z,3.05
2022-09-28T06:23:45.616Z,3.28
2022-09-28T06:26:15.775Z,3.22
2022-09-28T06:28:44.733Z,3.20
2022-09-28T06:31:12.248Z,3.30
2022-09-28T06:33:49.151Z,2.85
2022-09-28T06:36:18.189Z,3.10
2022-09-28T06:38:48.690Z,3.50
2022-09-28T06:41:19.771Z,3.20
2022-09-28T06:43:52.505Z,3.30
2022-09-28T06:46:52.621Z,2.85
2022-09-28T06:49:23.081Z,3.50
2022-09-28T06:54:58.774Z,3.17
2022-09-28T06:57:39.856Z,3.45
2022-09-28T07:00:08.017Z,3.20
2022-09-28T07:02:35.762Z,3.72
2022-09-28T07:05:08.323Z,3.20
2022-09-28T07:07:38.694Z,3.53
2022-09-28T07:10:15.717Z,3.20
2022-09-28T07:13:05.884Z,3.20
2022-09-28T07:15:41.364Z,2.92
2022-09-28T07:18:12.852Z,3.17
2022-09-28T07:20:53.101Z,3.15
2022-09-28T07:23:21.874Z,2.95
2022-09-28T07:26:24.592Z,2.90
2022-09-28T07:29:05.569Z,2.90
2022-09-28T07:31:53.387Z,3.28
2022-09-28T07:34:44.205Z,3.63
2022-09-28T07:37:36.425Z,3.13
2022-09-28T07:40:24.685Z,3.38
2022-09-28T07:42:53.220Z,2.55
2022-09-28T07:45:24.037Z,2.78
2022-09-28T07:48:00.734Z,3.03
2022-09-28T07:50:28.036Z,3.05
2022-09-28T07:53:16.435Z,2.97
2022-09-28T07:55:56.131Z,2.80
2022-09-28T07:58:58.652Z,2.60
2022-09-28T08:01:44.713Z,2.35
2022-09-28T08:04:14.607Z,2.83
2022-09-28T08:06:44.335Z,2.88
2022-09-28T08:09:13.698Z,2.58
2022-09-28T08:11:59.797Z,2.17
2022-09-28T08:14:56.906Z,2.75
2022-09-28T08:17:24.147Z,2.55
2022-09-28T08:20:14.161Z,2.50
2022-09-28T08:22:42.231Z,2.60
2022-09-28T08:25:09.830Z,2.22
2022-09-28T08:27:37.285Z,2.53
2022-09-28T08:30:06.095Z,2.40
2022-09-28T08:32:39.161Z,1.85
2022-09-28T08:38:10.277Z,1.73
2022-09-28T08:41:35.201Z,1.70
2022-09-28T08:48:22.568Z,1.77
2022-09-28T08:51:16.352Z,1.88
2022-09-28T08:54:01.200Z,1.73
2022-09-28T08:57:07.681Z,1.30
2022-09-28T08:59:52.421Z,1.33
2022-09-28T09:02:33.682Z,1.60
2022-09-28T09:05:36.199Z,1.80
2022-09-28T09:08:27.922Z,1.60
2022-09-28T09:11:09.718Z,2.00
2022-09-28T09:13:48.698Z,1.90
2022-09-28T09:16:36.593Z,19.27
2022-09-28T09:19:45.696Z,2.70
2022-09-28T09:22:34.353Z,1.92
2022-09-28T09:25:08.518Z,2.03
2022-09-28T09:28:08.144Z,2.75
2022-09-28T09:30:57.592Z,2.55
2022-09-28T09:34:02.332Z,2.13
2022-09-28T09:37:06.265Z,2.80
2022-09-28T09:40:05.348Z,1.95
2022-09-28T09:43:27.977Z,1.98
2022-09-28T09:46:38.130Z,2.15
2022-09-28T09:49:31.271Z,2.50
2022-09-28T09:52:06.987Z,2.45
2022-09-28T09:54:43.262Z,3.13
2022-09-28T09:57:20.497Z,2.30
2022-09-28T10:00:05.753Z,2.60
2022-09-28T10:02:50.084Z,1.90
2022-09-28T10:05:36.939Z,2.42
2022-09-28T10:08:14.863Z,2.25
2022-09-28T10:10:51.857Z,2.30
2022-09-28T10:13:21.930Z,2.35
2022-09-28T10:15:51.641Z,2.42
2022-09-28T10:18:39.328Z,2.05
2022-09-28T10:21:37.857Z,1.75
2022-09-28T10:24:40.562Z,2.03
2022-09-28T10:27:25.159Z,1.98
2022-09-28T10:30:03.873Z,2.10
2022-09-28T10:32:39.712Z,1.80
2022-09-28T10:35:18.735Z,2.40
2022-09-28T10:38:17.402Z,2.00
2022-09-28T10:41:00.181Z,2.55
2022-09-28T10:43:51.296Z,2.08
2022-09-28T10:46:23.934Z,3.78
2022-09-28T10:49:23.902Z,2.40
2022-09-28T10:51:57.122Z,2.03
2022-09-28T10:54:30.688Z,1.98
2022-09-28T10:57:00.465Z,2.05
2022-09-28T10:59:40.970Z,2.42
2022-09-28T11:02:36.003Z,2.10
2022-09-28T11:05:28.169Z,2.20
2022-09-28T11:08:00.993Z,1.88
2022-09-28T11:10:35.545Z,2.55
2022-09-28T11:13:11.194Z,2.20
2022-09-28T11:15:45.134Z,2.40
2022-09-28T11:18:32.687Z,2.28
2022-09-28T11:21:27.629Z,2.60
2022-09-28T11:24:07.708Z,2.90
2022-09-28T11:26:46.652Z,2.72
2022-09-28T11:29:24.950Z,2.63
2022-09-28T11:32:15.503Z,2.70
2022-09-28T11:35:08.072Z,2.92
2022-09-28T11:37:47.338Z,2.28
2022-09-28T11:40:29.804Z,2.28
2022-09-28T11:43:15.801Z,2.38
2022-09-28T11:46:12.600Z,2.50
2022-09-28T11:48:47.966Z,2.15
2022-09-28T11:53:55.402Z,2.08
2022-09-28T11:56:45.448Z,2.45
2022-09-28T11:59:34.752Z,2.35
2022-09-28T12:02:11.188Z,2.67
2022-09-28T12:04:59.512Z,1.88
2022-09-28T12:07:27.684Z,2.10
2022-09-28T12:10:10.303Z,2.38
2022-09-28T12:12:51.288Z,2.58
2022-09-28T12:15:25.821Z,2.85
2022-09-28T12:18:04.028Z,2.58
2022-09-28T12:20:34.970Z,2.25
2022-09-28T12:23:24.513Z,2.60
2022-09-28T12:26:05.035Z,2.20
2022-09-28T12:28:50.753Z,2.28
2022-09-28T12:31:38.596Z,2.42
2022-09-28T12:34:06.344Z,2.88
2022-09-28T12:36:41.784Z,2.30
2022-09-28T12:39:40.989Z,2.35
2022-09-28T12:42:24.495Z,2.65
2022-09-28T12:44:59.666Z,2.50
2022-09-28T12:47:59.365Z,1.95
2022-09-28T12:50:57.241Z,2.42
2022-09-28T12:53:54.170Z,2.50
2022-09-28T12:56:41.506Z,2.28
2022-09-28T12:59:22.356Z,2.72
2022-09-28T13:02:41.784Z,2.63
2022-09-28T13:05:37.894Z,2.50
2022-09-28T13:08:08.034Z,2.20
2022-09-28T13:10:43.091Z,2.15
2022-09-28T13:13:36.936Z,2.33
2022-09-28T13:16:10.209Z,2.60
2022-09-28T13:19:04.486Z,2.55
2022-09-28T13:22:11.908Z,2.40
2022-09-28T13:24:44.506Z,2.67
2022-09-28T13:27:23.140Z,2.08
2022-09-28T13:29:52.427Z,2.53
2022-09-28T13:32:20.220Z,2.10
2022-09-28T13:34:50.658Z,2.00
2022-09-28T13:37:25.780Z,2.38
2022-09-28T13:39:56.793Z,2.40
2022-09-28T13:42:36.295Z,2.53
2022-09-28T13:45:21.668Z,2.00
2022-09-28T13:47:57.132Z,2.30
2022-09-28T13:50:34.634Z,1.98
2022-09-28T13:53:39.632Z,2.00
2022-09-28T13:56:26.002Z,1.70
2022-09-28T13:59:15.011Z,2.25
2022-09-28T14:01:52.147Z,2.20
2022-09-28T14:04:24.635Z,2.40
2022-09-28T14:07:15.428Z,2.83
2022-09-28T14:09:45.793Z,2.80
2022-09-28T14:12:31.831Z,2.22
2022-09-28T14:15:00.284Z,2.53
2022-09-28T14:17:32.476Z,2.53
2022-09-28T14:20:07.537Z,2.22
2022-09-28T14:22:40.641Z,2.10
2022-09-28T14:25:08.106Z,2.30
2022-09-28T14:27:47.813Z,2.10
2022-09-28T14:30:15.094Z,1.70
2022-09-28T14:32:52.592Z,2.00
2022-09-28T14:35:27.877Z,2.42
2022-09-28T14:38:19.281Z,2.30
2022-09-28T14:41:15.672Z,2.10
2022-09-28T14:43:45.788Z,1.80
2022-09-28T14:46:16.102Z,2.20
2022-09-28T14:48:52.998Z,1.80
2022-09-28T14:51:35.869Z,2.05
2022-09-28T14:54:36.961Z,1.90
2022-09-28T14:57:08.286Z,2.30
2022-09-28T14:59:43.798Z,2.30
2022-09-28T15:02:11.199Z,2.05
2022-09-28T15:04:45.057Z,2.10
2022-09-28T15:07:24.371Z,1.80
2022-09-28T15:09:54.007Z,2.03
2022-09-28T15:12:31.133Z,2.55
2022-09-28T15:15:04.394Z,2.10
2022-09-28T15:17:40.049Z,2.50
2022-09-28T15:20:30.841Z,2.33
2022-09-28T15:25:52.942Z,2.28
2022-09-28T15:28:22.618Z,1.92
2022-09-28T15:30:50.493Z,2.55
2022-09-28T15:33:48.567Z,2.72
2022-09-28T15:36:41.101Z,2.45
2022-09-28T15:39:32.003Z,2.50
2022-09-28T15:42:01.078Z,2.85
2022-09-28T15:45:03.014Z,2.88
2022-09-28T15:47:32.182Z,3.10
2022-09-28T15:50:04.830Z,2.63
2022-09-28T15:52:47.301Z,3.28
2022-09-28T15:55:28.836Z,3.92
2022-09-28T15:58:15.961Z,4.20
2022-09-28T16:00:45.366Z,3.60
2022-09-28T16:03:12.551Z,3.90
2022-09-28T16:05:47.083Z,3.83
2022-09-28T16:08:22.427Z,3.92
2022-09-28T16:13:25.963Z,4.15
2022-09-28T16:16:00.643Z,3.67
2022-09-28T16:18:30.677Z,4.80
2022-09-28T16:21:29.428Z,4.32
2022-09-28T16:23:57.749Z,4.40
2022-09-28T16:26:37.808Z,4.45
2022-09-28T16:29:41.523Z,4.90
2022-09-28T16:32:27.339Z,4.88
2022-09-28T16:37:34.412Z,5.00
2022-09-28T16:40:02.014Z,4.53
2022-09-28T16:42:29.398Z,4.35
2022-09-28T16:44:56.777Z,4.93
2022-09-28T16:47:24.336Z,4.97
2022-09-28T16:49:51.918Z,4.53
2022-09-28T16:52:40.252Z,4.53
2022-09-28T16:58:05.750Z,4.72
2022-09-28T17:00:33.199Z,5.93
2022-09-28T17:03:00.807Z,5.53
2022-09-28T17:05:28.899Z,5.20
2022-09-28T17:08:02.161Z,5.57
2022-09-28T17:10:50.011Z,5.30
2022-09-28T17:13:37.698Z,5.10
2022-09-28T17:16:10.680Z,5.38
2022-09-28T17:18:40.240Z,5.70
2022-09-28T17:21:12.532Z,6.13
2022-09-28T17:23:39.905Z,5.75
2022-09-28T17:26:07.470Z,6.32
2022-09-28T17:28:36.560Z,5.45
2022-09-28T17:31:05.169Z,6.07
2022-09-28T17:33:32.881Z,5.43
2022-09-28T17:36:04.971Z,6.43
2022-09-28T17:38:32.705Z,6.90
2022-09-28T17:41:00.037Z,5.95
2022-09-28T17:43:27.600Z,7.22
2022-09-28T17:45:54.991Z,7.32
2022-09-28T17:48:24.516Z,6.80
2022-09-28T17:50:52.105Z,6.47
2022-09-28T17:53:19.877Z,7.75
2022-09-28T17:55:47.535Z,5.85
2022-09-28T17:58:20.781Z,7.57
2022-09-28T18:00:50.618Z,7.30
2022-09-28T18:03:20.607Z,7.63
2022-09-28T18:05:52.368Z,8.15
2022-09-28T18:08:21.718Z,10.35
2022-09-28T18:10:50.642Z,11.52
2022-09-28T18:13:18.126Z,10.95
2022-09-28T18:15:45.669Z,9.60
2022-09-28T18:18:13.310Z,10.07
2022-09-28T18:20:41.705Z,10.70
2022-09-28T18:23:09.041Z,10.27
2022-09-28T18:25:40.380Z,8.88
2022-09-28T18:28:08.132Z,8.98
2022-09-28T18:30:39.981Z,9.50
2022-09-28T18:33:08.904Z,8.77
2022-09-28T18:35:36.901Z,10.93
2022-09-28T18:38:05.879Z,10.13
2022-09-28T18:40:35.642Z,9.35
2022-09-28T18:43:04.463Z,8.82
2022-09-28T18:45:31.971Z,6.88
2022-09-28T18:48:00.025Z,8.20
2022-09-28T18:50:27.485Z,6.68
2022-09-28T18:52:54.870Z,6.95
2022-09-28T18:55:22.349Z,7.00
2022-09-28T18:57:50.016Z,7.22
2022-09-28T19:00:17.371Z,7.28
2022-09-28T19:02:44.942Z,7.15
2022-09-28T19:05:12.496Z,7.22
2022-09-28T19:07:39.840Z,7.15
2022-09-28T19:10:07.954Z,6.57
2022-09-28T19:12:35.322Z,6.25
2022-09-28T19:15:02.732Z,6.40
2022-09-28T19:17:30.136Z,5.53
2022-09-28T19:19:57.526Z,6.53
2022-09-28T19:22:25.005Z,5.90
2022-09-28T19:24:53.891Z,9.48
2022-09-28T19:27:21.296Z,7.50
2022-09-28T19:29:48.868Z,5.45
2022-09-28T19:32:16.261Z,6.10
2022-09-28T19:34:43.843Z,5.68
2022-09-28T19:37:11.336Z,5.60
2022-09-28T19:39:38.818Z,5.95
2022-09-28T19:42:06.582Z,5.35
2022-09-28T19:44:35.968Z,5.38
2022-09-28T19:47:07.727Z,4.85
2022-09-28T19:49:37.914Z,8.90
2022-09-28T19:52:14.620Z,6.18
2022-09-28T19:54:52.386Z,6.47
2022-09-28T19:57:20.055Z,5.65
2022-09-28T19:59:50.785Z,5.65
2022-09-28T20:02:20.623Z,5.55
2022-09-28T20:04:48.642Z,5.43
2022-09-28T20:07:16.433Z,4.72
2022-09-28T20:09:43.700Z,4.97
2022-09-28T20:12:11.450Z,5.25
2022-09-28T20:14:40.454Z,4.60
2022-09-28T20:17:08.527Z,4.65
2022-09-28T20:19:36.265Z,4.50
2022-09-28T20:22:04.252Z,5.28
2022-09-28T20:24:31.763Z,5.18
2022-09-28T20:26:59.376Z,4.57
2022-09-28T20:29:26.986Z,4.90
2022-09-28T20:31:54.372Z,5.03
2022-09-28T20:34:25.058Z,5.07
2022-09-28T20:36:52.473Z,5.03
2022-09-28T20:39:20.176Z,4.63
2022-09-28T20:41:49.353Z,5.07
2022-09-28T20:44:16.960Z,4.68
2022-09-28T20:46:44.587Z,5.03
2022-09-28T20:49:12.344Z,4.22
2022-09-28T20:51:39.956Z,3.97
2022-09-28T20:54:07.333Z,4.18
2022-09-28T20:56:39.570Z,4.57
2022-09-28T20:59:13.269Z,4.22
2022-09-28T21:01:41.066Z,3.95
2022-09-28T21:04:10.104Z,4.15
2022-09-28T21:06:39.543Z,4.22
2022-09-28T21:09:08.728Z,3.53
2022-09-28T21:11:36.529Z,4.15
2022-09-28T21:14:06.576Z,4.10
2022-09-28T21:16:38.329Z,3.70
2022-09-28T21:19:08.657Z,3.28
2022-09-28T21:21:46.619Z,3.42
2022-09-28T21:24:13.988Z,3.72
2022-09-28T21:26:43.140Z,4.13
2022-09-28T21:29:16.702Z,3.72
2022-09-28T21:31:46.182Z,3.53
2022-09-28T21:34:22.130Z,4.72
2022-09-28T21:36:52.879Z,3.95
2022-09-28T21:39:20.729Z,4.15
2022-09-28T21:41:51.376Z,4.70
2022-09-28T21:44:18.848Z,3.78
2022-09-28T21:46:46.302Z,3.92
2022-09-28T21:49:16.010Z,3.67
2022-09-28T21:51:43.369Z,4.15
2022-09-28T21:54:12.215Z,3.17
2022-09-28T21:56:43.846Z,3.53
2022-09-28T21:59:11.149Z,2.75
2022-09-28T22:01:53.392Z,3.42
2022-09-28T22:04:26.319Z,2.95
2022-09-28T22:06:53.714Z,3.30
2022-09-28T22:09:40.904Z,2.85
2022-09-28T22:14:53.804Z,3.53
2022-09-28T22:17:23.780Z,3.40
2022-09-28T22:19:54.443Z,2.88
2022-09-28T22:22:48.555Z,3.38
2022-09-28T22:25:22.125Z,3.15
2022-09-28T22:27:49.669Z,2.70
2022-09-28T22:30:34.311Z,3.17
2022-09-28T22:33:02.717Z,3.05
2022-09-28T22:35:32.403Z,3.05
2022-09-28T22:38:07.700Z,3.10
2022-09-28T22:43:05.040Z,3.05
2022-09-28T22:45:32.510Z,2.75
2022-09-28T22:48:05.855Z,2.88
2022-09-28T22:50:36.672Z,3.25
2022-09-28T22:53:04.563Z,2.95
2022-09-28T22:55:49.109Z,2.67
2022-09-28T22:58:18.756Z,2.60
2022-09-28T23:00:57.956Z,2.22
2022-09-28T23:03:28.398Z,2.15
2022-09-28T23:06:08.468Z,2.78
2022-09-28T23:08:56.096Z,2.35
2022-09-28T23:11:36.221Z,2.35
2022-09-28T23:14:04.300Z,2.42
2022-09-28T23:16:31.758Z,2.70
2022-09-28T23:18:59.179Z,2.53
2022-09-28T23:21:31.414Z,2.60
2022-09-28T23:24:03.475Z,2.15
2022-09-28T23:26:32.887Z,2.28
2022-09-28T23:29:01.026Z,2.20
2022-09-28T23:31:31.102Z,2.30
2022-09-28T23:34:00.647Z,1.90
2022-09-28T23:36:28.340Z,2.00
2022-09-28T23:38:55.910Z,2.15
2022-09-28T23:41:23.333Z,2.40
2022-09-28T23:43:50.731Z,2.30
2022-09-28T23:46:21.310Z,1.98
2022-09-28T23:48:49.859Z,2.03
2022-09-28T23:51:21.661Z,1.80
2022-09-28T23:53:49.056Z,1.85
2022-09-28T23:56:16.560Z,1.80
2022-09-28T23:58:43.793Z,2.17
